Terminal Aerodrome Forecast
Issued by NWS Wilmington, OH

Current Version | Previous Version | Text Only | Print | Product List | Glossary Off
Versions: 1 2 3 4 5 6 7 8 9 10 11 12 13

093
FTUS41 KILN 210250 AAA
TAFCMH
TAF AMD
KCMH 210250Z 2103/2124 23012KT P6SM -SHRA VCTS BKN050CB
      TEMPO 2103/2106 VRB10G20KT 3SM TSRA OVC035CB
     FM210600 26012KT P6SM BKN025
     FM210900 32010KT P6SM BKN035
     FM211700 30009KT P6SM BKN080=

USA.gov is the U.S. government's official web portal to all federal, state and local government web resources and services.